createdAt,value
2019-04-25T00:00:13.668Z,0.40
2019-04-25T00:02:45.333Z,0.40
2019-04-25T00:05:14.699Z,0.40
2019-04-25T00:07:43.916Z,0.40
2019-04-25T00:10:13.774Z,0.30
2019-04-25T00:12:43.593Z,0.30
2019-04-25T00:15:14.528Z,0.47
2019-04-25T00:17:44.450Z,0.30
2019-04-25T00:20:13.771Z,0.40
2019-04-25T00:23:02.019Z,0.40
2019-04-25T00:25:48.313Z,0.40
2019-04-25T00:28:18.289Z,0.37
2019-04-25T00:30:48.050Z,0.67
2019-04-25T00:33:17.138Z,0.40
2019-04-25T00:35:46.116Z,0.63
2019-04-25T00:38:15.145Z,0.70
2019-04-25T00:40:44.735Z,0.50
2019-04-25T00:43:13.833Z,0.50
2019-04-25T00:45:44.341Z,0.77
2019-04-25T00:48:13.531Z,0.50
2019-04-25T00:50:43.352Z,0.57
2019-04-25T00:53:13.310Z,0.50
2019-04-25T00:55:43.097Z,0.60
2019-04-25T00:58:13.807Z,0.63
2019-04-25T01:00:47.374Z,0.80
2019-04-25T01:03:27.271Z,0.50
2019-04-25T01:05:56.299Z,0.70
2019-04-25T01:08:26.369Z,0.73
2019-04-25T01:10:55.410Z,0.70
2019-04-25T01:13:24.329Z,0.60
2019-04-25T01:15:53.755Z,0.50
2019-04-25T01:18:23.159Z,0.50
2019-04-25T01:20:53.597Z,0.40
2019-04-25T01:23:23.769Z,0.40
2019-04-25T01:25:54.457Z,0.33
2019-04-25T01:28:24.380Z,0.40
2019-04-25T01:30:54.993Z,0.30
2019-04-25T01:33:25.408Z,0.60
2019-04-25T01:35:56.924Z,0.40
2019-04-25T01:38:27.678Z,0.60
2019-04-25T01:41:04.116Z,0.40
2019-04-25T01:43:57.096Z,0.50
2019-04-25T01:46:24.309Z,0.60
2019-04-25T01:48:54.491Z,0.60
2019-04-25T01:51:24.142Z,0.37
2019-04-25T01:53:54.568Z,0.40
2019-04-25T01:56:24.784Z,0.40
2019-04-25T01:58:54.763Z,0.40
2019-04-25T02:01:24.192Z,0.47
2019-04-25T02:03:55.541Z,0.50
2019-04-25T02:06:24.817Z,0.60
2019-04-25T02:08:56.166Z,0.40
2019-04-25T02:11:26.399Z,0.40
2019-04-25T02:13:55.853Z,0.50
2019-04-25T02:16:25.957Z,0.67
2019-04-25T02:18:55.542Z,0.50
2019-04-25T02:21:25.356Z,0.60
2019-04-25T02:23:55.543Z,0.60
2019-04-25T02:26:25.033Z,0.63
2019-04-25T02:28:55.210Z,0.67
2019-04-25T02:31:25.059Z,0.80
2019-04-25T02:33:57.853Z,0.67
2019-04-25T02:36:24.802Z,0.50
2019-04-25T02:38:57.544Z,0.70
2019-04-25T02:41:25.090Z,0.30
2019-04-25T02:43:56.315Z,0.40
2019-04-25T02:46:29.106Z,0.70
2019-04-25T02:49:29.768Z,0.50
2019-04-25T02:51:56.158Z,0.60
2019-04-25T02:54:24.576Z,0.60
2019-04-25T02:56:54.705Z,0.50
2019-04-25T02:59:25.345Z,0.50
2019-04-25T03:01:54.627Z,0.70
2019-04-25T03:04:24.126Z,0.50
2019-04-25T03:06:55.364Z,0.40
2019-04-25T03:09:24.967Z,0.50
2019-04-25T03:11:54.773Z,0.50
2019-04-25T03:14:26.395Z,0.67
2019-04-25T03:16:54.945Z,0.70
2019-04-25T03:19:44.120Z,0.57
2019-04-25T03:22:17.192Z,0.50
2019-04-25T03:24:46.142Z,0.40
2019-04-25T03:27:16.839Z,0.50
2019-04-25T03:29:47.115Z,0.50
2019-04-25T03:32:19.693Z,0.60
2019-04-25T03:34:46.959Z,0.53
2019-04-25T03:37:15.896Z,0.60
2019-04-25T03:39:44.842Z,0.60
2019-04-25T03:42:14.103Z,0.60
2019-04-25T03:44:43.829Z,0.70
2019-04-25T03:47:13.547Z,0.80
2019-04-25T03:49:43.481Z,0.60
2019-04-25T03:52:14.143Z,0.60
2019-04-25T03:54:43.442Z,0.50
2019-04-25T03:57:14.483Z,0.70
2019-04-25T03:59:43.809Z,0.50
2019-04-25T04:02:13.503Z,0.87
2019-04-25T04:04:43.565Z,0.53
2019-04-25T04:07:14.336Z,0.70
2019-04-25T04:09:43.584Z,0.50
2019-04-25T04:12:12.594Z,0.57
2019-04-25T04:14:41.542Z,0.70
2019-04-25T04:17:29.991Z,0.70
2019-04-25T04:20:00.734Z,0.53
2019-04-25T04:22:35.795Z,0.43
2019-04-25T04:25:07.581Z,0.70
2019-04-25T04:27:36.603Z,0.80
2019-04-25T04:30:09.023Z,0.60
2019-04-25T04:32:38.844Z,0.60
2019-04-25T04:35:08.668Z,0.40
2019-04-25T04:37:37.651Z,0.50
2019-04-25T04:40:09.613Z,0.70
2019-04-25T04:42:38.690Z,0.40
2019-04-25T04:45:08.478Z,0.60
2019-04-25T04:47:37.508Z,0.70
2019-04-25T04:50:06.708Z,0.70
2019-04-25T04:52:35.654Z,0.80
2019-04-25T04:55:09.729Z,0.60
2019-04-25T04:57:38.570Z,0.60
2019-04-25T05:00:08.006Z,0.90
2019-04-25T05:02:38.678Z,1.40
2019-04-25T05:05:16.913Z,1.47
2019-04-25T05:07:56.579Z,0.87
2019-04-25T05:10:25.590Z,0.67
2019-04-25T05:12:54.623Z,0.80
2019-04-25T05:15:24.761Z,0.80
2019-04-25T05:17:54.302Z,0.67
2019-04-25T05:20:24.174Z,0.70
2019-04-25T05:22:54.838Z,0.80
2019-04-25T05:25:24.718Z,0.80
2019-04-25T05:28:02.016Z,0.77
2019-04-25T05:30:28.638Z,0.60
2019-04-25T05:32:57.600Z,0.80
2019-04-25T05:35:26.529Z,0.70
2019-04-25T05:37:55.488Z,0.60
2019-04-25T05:40:25.356Z,0.80
2019-04-25T05:42:58.559Z,1.10
2019-04-25T05:45:31.732Z,1.20
2019-04-25T05:48:00.811Z,0.93
2019-04-25T05:50:29.731Z,1.13
2019-04-25T05:52:58.706Z,0.80
2019-04-25T05:55:27.636Z,0.60
2019-04-25T05:57:56.609Z,0.70
2019-04-25T06:00:26.059Z,0.80
2019-04-25T06:02:55.859Z,0.93
2019-04-25T06:05:26.480Z,0.77
2019-04-25T06:07:55.558Z,0.60
2019-04-25T06:10:29.098Z,0.60
2019-04-25T06:13:15.557Z,0.60
2019-04-25T06:15:46.151Z,0.77
2019-04-25T06:18:28.773Z,0.50
2019-04-25T06:20:57.738Z,0.60
2019-04-25T06:23:37.051Z,0.80
2019-04-25T06:26:19.212Z,0.70
2019-04-25T06:28:49.006Z,1.00
2019-04-25T06:31:10.306Z,0.83
2019-04-25T06:33:38.327Z,0.70
2019-04-25T06:36:07.483Z,0.97
2019-04-25T06:38:36.539Z,0.80
2019-04-25T06:41:05.640Z,0.90
2019-04-25T06:43:36.474Z,0.90
2019-04-25T06:46:24.829Z,0.50
2019-04-25T06:48:58.932Z,1.00
2019-04-25T06:51:46.131Z,0.53
2019-04-25T06:54:15.143Z,0.73
2019-04-25T06:56:44.105Z,0.60
2019-04-25T06:59:13.591Z,1.07
2019-04-25T07:01:43.989Z,0.60
2019-04-25T07:04:14.071Z,0.70
2019-04-25T07:06:45.433Z,0.80
2019-04-25T07:09:14.765Z,0.57
2019-04-25T07:11:44.139Z,0.90
2019-04-25T07:14:14.211Z,0.90
2019-04-25T07:16:43.436Z,0.80
2019-04-25T07:19:14.270Z,0.70
2019-04-25T07:21:44.388Z,0.60
2019-04-25T07:24:14.508Z,0.90
2019-04-25T07:26:45.867Z,0.67
2019-04-25T07:29:26.018Z,0.77
2019-04-25T07:32:00.656Z,0.53
2019-04-25T07:34:30.726Z,0.70
2019-04-25T07:36:59.798Z,0.77
2019-04-25T07:39:29.583Z,0.73
2019-04-25T07:41:58.699Z,1.20
2019-04-25T07:44:39.500Z,0.60
2019-04-25T07:46:58.487Z,0.90
2019-04-25T07:49:28.507Z,0.70
2019-04-25T07:51:57.599Z,0.70
2019-04-25T07:54:27.872Z,0.70
2019-04-25T07:56:59.802Z,0.70
2019-04-25T07:59:29.034Z,0.50
2019-04-25T08:01:58.088Z,0.80
2019-04-25T08:04:27.630Z,0.60
2019-04-25T08:06:56.750Z,0.60
2019-04-25T08:09:25.705Z,0.60
2019-04-25T08:11:54.916Z,0.90
2019-04-25T08:14:28.586Z,0.60
2019-04-25T08:16:59.504Z,0.77
2019-04-25T08:19:29.638Z,0.90
2019-04-25T08:21:58.972Z,0.57
2019-04-25T08:24:28.363Z,0.90
2019-04-25T08:26:58.329Z,1.13
2019-04-25T08:29:27.440Z,0.97
2019-04-25T08:31:56.450Z,0.73
2019-04-25T08:34:25.584Z,0.60
2019-04-25T08:36:54.543Z,0.80
2019-04-25T08:39:24.064Z,0.90
2019-04-25T08:41:57.968Z,1.00
2019-04-25T08:44:24.257Z,0.53
2019-04-25T08:46:53.678Z,0.57
2019-04-25T08:49:27.361Z,0.60
2019-04-25T08:51:57.522Z,0.40
2019-04-25T08:54:28.164Z,0.47
2019-04-25T08:56:58.890Z,0.43
2019-04-25T08:59:47.277Z,0.60
2019-04-25T09:02:13.897Z,0.50
2019-04-25T09:04:44.939Z,0.60
2019-04-25T09:07:13.922Z,0.57
2019-04-25T09:09:43.979Z,0.50
2019-04-25T09:12:14.031Z,0.33
2019-04-25T09:14:46.303Z,0.57
2019-04-25T09:17:14.283Z,0.50
2019-04-25T09:19:44.442Z,0.87
2019-04-25T09:22:13.932Z,0.90
2019-04-25T09:24:44.396Z,1.00
2019-04-25T09:27:15.519Z,0.77
2019-04-25T09:29:45.241Z,0.80
2019-04-25T09:32:14.967Z,0.93
2019-04-25T09:34:43.952Z,0.80
2019-04-25T09:37:14.263Z,0.90
2019-04-25T09:39:47.660Z,0.83
2019-04-25T09:42:16.807Z,1.10
2019-04-25T09:45:03.843Z,0.97
2019-04-25T09:47:33.558Z,0.90
2019-04-25T09:50:04.305Z,0.60
2019-04-25T09:52:34.051Z,0.50
2019-04-25T09:55:13.354Z,0.80
2019-04-25T09:58:00.141Z,0.60
2019-04-25T10:00:40.412Z,0.60
2019-04-25T10:03:09.621Z,0.87
2019-04-25T10:05:38.727Z,0.63
2019-04-25T10:08:07.744Z,1.23
2019-04-25T10:10:36.817Z,0.83
2019-04-25T10:13:06.604Z,0.70
2019-04-25T10:15:56.786Z,1.40
2019-04-25T10:18:25.768Z,1.30
2019-04-25T10:20:54.904Z,1.13
2019-04-25T10:23:24.117Z,0.97
2019-04-25T10:25:53.793Z,1.00
2019-04-25T10:28:23.431Z,1.00
2019-04-25T10:30:53.117Z,1.03
2019-04-25T10:33:24.892Z,1.00
2019-04-25T10:35:59.502Z,1.00
2019-04-25T10:38:27.127Z,0.83
2019-04-25T10:40:57.231Z,1.10
2019-04-25T10:43:26.396Z,0.73
2019-04-25T10:45:55.363Z,0.80
2019-04-25T10:48:25.836Z,1.00
2019-04-25T10:50:55.744Z,0.80
2019-04-25T10:53:25.288Z,0.70
2019-04-25T10:55:54.271Z,0.77
2019-04-25T10:58:23.304Z,0.60
2019-04-25T11:00:53.348Z,0.80
2019-04-25T11:03:40.772Z,0.57
2019-04-25T11:06:10.614Z,0.50
2019-04-25T11:08:40.422Z,0.90
2019-04-25T11:11:10.499Z,0.97
2019-04-25T11:13:39.844Z,1.03
2019-04-25T11:16:09.716Z,0.90
2019-04-25T11:18:38.766Z,1.03
2019-04-25T11:21:07.782Z,1.00
2019-04-25T11:23:36.816Z,0.80
2019-04-25T11:26:05.805Z,0.80
2019-04-25T11:28:35.405Z,0.80
2019-04-25T11:31:06.046Z,0.80
2019-04-25T11:33:35.746Z,0.53
2019-04-25T11:36:05.117Z,0.70
2019-04-25T11:38:35.872Z,0.60
2019-04-25T11:41:09.270Z,0.80
2019-04-25T11:43:38.232Z,0.60
2019-04-25T11:46:07.383Z,0.80
2019-04-25T11:48:36.483Z,0.90
2019-04-25T11:51:06.016Z,0.53
2019-04-25T11:53:34.987Z,0.70
2019-04-25T11:56:04.138Z,0.90
2019-04-25T11:58:33.303Z,0.70
2019-04-25T12:01:03.423Z,0.70
2019-04-25T12:03:33.700Z,0.73
2019-04-25T12:06:02.636Z,0.67
2019-04-25T12:08:31.626Z,0.70
2019-04-25T12:11:00.712Z,0.70
2019-04-25T12:13:29.758Z,0.70
2019-04-25T12:16:00.387Z,0.77
2019-04-25T12:18:29.458Z,0.83
2019-04-25T12:20:58.431Z,0.97
2019-04-25T12:23:27.439Z,0.90
2019-04-25T12:25:56.532Z,1.00
2019-04-25T12:28:25.553Z,0.50
2019-04-25T12:30:55.331Z,0.60
2019-04-25T12:33:25.360Z,0.60
2019-04-25T12:35:55.378Z,0.77
2019-04-25T12:38:24.952Z,0.70
2019-04-25T12:40:54.391Z,0.73
2019-04-25T12:43:28.276Z,1.07
2019-04-25T12:46:17.127Z,0.60
2019-04-25T12:48:46.106Z,0.63
2019-04-25T12:51:15.255Z,0.60
2019-04-25T12:53:44.255Z,0.73
2019-04-25T12:56:13.287Z,0.83
2019-04-25T12:58:43.482Z,0.60
2019-04-25T13:01:12.794Z,0.83
2019-04-25T13:03:41.761Z,0.60
2019-04-25T13:06:10.872Z,0.70
2019-04-25T13:08:39.841Z,0.80
2019-04-25T13:11:10.506Z,0.60
2019-04-25T13:13:39.660Z,0.67
2019-04-25T13:16:08.705Z,0.70
2019-04-25T13:18:37.808Z,0.50
2019-04-25T13:21:07.743Z,0.93
2019-04-25T13:23:36.769Z,0.57
2019-04-25T13:26:05.866Z,0.80
2019-04-25T13:28:54.101Z,0.63
2019-04-25T13:31:36.644Z,0.70
2019-04-25T13:34:09.780Z,0.50
2019-04-25T13:36:38.963Z,0.40
2019-04-25T13:39:10.079Z,0.60
2019-04-25T13:41:39.155Z,0.53
2019-04-25T13:44:09.029Z,0.50
2019-04-25T13:46:38.298Z,0.50
2019-04-25T13:49:07.306Z,0.30
2019-04-25T13:51:36.408Z,0.50
2019-04-25T13:54:05.653Z,0.40
2019-04-25T13:56:40.169Z,0.50
2019-04-25T13:59:06.065Z,0.70
2019-04-25T14:01:35.082Z,0.50
2019-04-25T14:04:04.883Z,0.50
2019-04-25T14:06:33.893Z,0.50
2019-04-25T14:09:04.508Z,0.60
2019-04-25T14:11:34.546Z,0.60
2019-04-25T14:14:04.491Z,0.50
2019-04-25T14:16:41.186Z,0.60
2019-04-25T14:19:32.954Z,0.70
2019-04-25T14:22:04.373Z,0.80
2019-04-25T14:24:35.730Z,0.80
2019-04-25T14:27:04.599Z,2.90
2019-04-25T14:29:34.745Z,2.03
2019-04-25T14:32:05.742Z,0.70
2019-04-25T14:34:34.725Z,0.90
2019-04-25T14:37:03.835Z,0.60
2019-04-25T14:39:33.366Z,0.80
2019-04-25T14:42:02.523Z,0.50
2019-04-25T14:44:31.513Z,0.50
2019-04-25T14:47:00.465Z,0.70
2019-04-25T14:49:30.420Z,0.53
2019-04-25T14:51:59.626Z,0.50
2019-04-25T14:54:30.685Z,0.87
2019-04-25T14:57:07.349Z,0.90
2019-04-25T14:59:36.450Z,0.70
2019-04-25T15:02:05.624Z,0.80
2019-04-25T15:04:35.301Z,0.70
2019-04-25T15:07:04.438Z,0.70
2019-04-25T15:09:33.400Z,0.50
2019-04-25T15:12:02.418Z,0.70
2019-04-25T15:14:31.490Z,0.70
2019-04-25T15:17:00.542Z,0.67
2019-04-25T15:19:29.695Z,0.63
2019-04-25T15:21:58.687Z,0.67
2019-04-25T15:24:27.693Z,0.80
2019-04-25T15:26:57.039Z,0.50
2019-04-25T15:29:26.558Z,0.50
2019-04-25T15:31:56.298Z,0.70
2019-04-25T15:34:27.676Z,0.70
2019-04-25T15:36:58.322Z,0.80
2019-04-25T15:39:35.278Z,1.00
2019-04-25T15:42:21.841Z,0.73
2019-04-25T15:45:04.444Z,0.50
2019-04-25T15:47:34.066Z,0.80
2019-04-25T15:50:04.541Z,0.80
2019-04-25T15:52:33.865Z,0.73
2019-04-25T15:55:07.291Z,1.23
2019-04-25T15:57:34.503Z,0.60
2019-04-25T16:00:08.728Z,0.60
2019-04-25T16:02:37.727Z,0.67
2019-04-25T16:05:08.118Z,0.60
2019-04-25T16:07:37.730Z,0.60
2019-04-25T16:10:08.119Z,0.57
2019-04-25T16:12:37.384Z,0.70
2019-04-25T16:15:07.292Z,0.83
2019-04-25T16:17:37.102Z,1.00
2019-04-25T16:20:06.810Z,0.60
2019-04-25T16:22:36.554Z,0.93
2019-04-25T16:25:07.001Z,1.10
2019-04-25T16:27:36.626Z,0.60
2019-04-25T16:30:07.910Z,1.00
2019-04-25T16:32:36.823Z,0.57
2019-04-25T16:35:06.905Z,0.90
2019-04-25T16:37:36.852Z,0.73
2019-04-25T16:40:06.111Z,0.70
2019-04-25T16:42:35.921Z,0.70
2019-04-25T16:45:06.905Z,0.70
2019-04-25T16:47:37.325Z,0.60
2019-04-25T16:50:09.803Z,0.60
2019-04-25T16:52:38.842Z,0.67
2019-04-25T16:55:09.563Z,0.87
2019-04-25T16:57:39.582Z,0.60
2019-04-25T17:00:14.750Z,0.57
2019-04-25T17:02:43.798Z,0.80
2019-04-25T17:05:12.999Z,0.90
2019-04-25T17:07:41.967Z,0.73
2019-04-25T17:10:11.250Z,0.70
2019-04-25T17:12:42.324Z,0.97
2019-04-25T17:15:23.323Z,0.93
2019-04-25T17:18:08.930Z,1.00
2019-04-25T17:20:39.721Z,1.00
2019-04-25T17:23:09.279Z,1.23
2019-04-25T17:25:38.345Z,0.87
2019-04-25T17:28:07.521Z,0.97
2019-04-25T17:30:38.248Z,0.80
2019-04-25T17:33:25.266Z,0.70
2019-04-25T17:35:55.992Z,0.70
2019-04-25T17:38:35.715Z,0.60
2019-04-25T17:41:04.900Z,0.53
2019-04-25T17:43:34.631Z,0.70
2019-04-25T17:46:05.545Z,0.80
2019-04-25T17:48:34.597Z,0.97
2019-04-25T17:51:03.593Z,0.70
2019-04-25T17:53:33.066Z,0.63
2019-04-25T17:56:02.196Z,0.73
2019-04-25T17:58:31.153Z,0.90
2019-04-25T18:01:00.161Z,1.00
2019-04-25T18:03:29.295Z,0.90
2019-04-25T18:05:58.298Z,0.90
2019-04-25T18:08:27.332Z,0.80
2019-04-25T18:10:56.267Z,1.00
2019-04-25T18:13:25.242Z,0.97
2019-04-25T18:15:55.901Z,0.93
2019-04-25T18:18:45.555Z,0.70
2019-04-25T18:21:14.738Z,0.87
2019-04-25T18:24:01.347Z,0.70
2019-04-25T18:26:41.345Z,0.90
2019-04-25T18:29:12.018Z,1.03
2019-04-25T18:31:41.609Z,0.87
2019-04-25T18:34:12.470Z,0.80
2019-04-25T18:36:52.077Z,0.90
2019-04-25T18:39:25.737Z,1.00
2019-04-25T18:41:59.041Z,1.03
2019-04-25T18:44:28.024Z,0.80
2019-04-25T18:46:58.475Z,1.03
2019-04-25T18:49:27.577Z,0.80
2019-04-25T18:51:58.385Z,1.10
2019-04-25T18:54:34.526Z,0.97
2019-04-25T18:57:07.887Z,0.90
2019-04-25T18:59:54.436Z,0.83
2019-04-25T19:02:27.646Z,0.93
2019-04-25T19:05:14.415Z,0.53
2019-04-25T19:07:43.441Z,1.00
2019-04-25T19:10:12.964Z,0.60
2019-04-25T19:12:43.112Z,0.87
2019-04-25T19:15:12.299Z,0.40
2019-04-25T19:17:41.409Z,0.90
2019-04-25T19:20:10.612Z,0.80
2019-04-25T19:22:40.257Z,0.63
2019-04-25T19:25:09.385Z,0.80
2019-04-25T19:27:38.448Z,0.67
2019-04-25T19:30:09.526Z,0.70
2019-04-25T19:32:38.565Z,0.67
2019-04-25T19:35:07.866Z,0.90
2019-04-25T19:37:39.474Z,0.77
2019-04-25T19:40:10.770Z,0.53
2019-04-25T19:42:42.277Z,0.77
2019-04-25T19:45:11.386Z,1.10
2019-04-25T19:47:41.342Z,0.90
2019-04-25T19:50:13.201Z,1.60
2019-04-25T19:52:42.842Z,1.83
2019-04-25T19:55:12.927Z,1.53
2019-04-25T19:57:44.958Z,1.50
2019-04-25T20:00:16.540Z,1.50
2019-04-25T20:02:50.783Z,1.57
2019-04-25T20:05:21.470Z,1.57
2019-04-25T20:08:00.726Z,1.10
2019-04-25T20:10:33.827Z,1.20
2019-04-25T20:13:04.141Z,1.10
2019-04-25T20:15:33.133Z,1.10
2019-04-25T20:18:02.203Z,1.80
2019-04-25T20:20:31.288Z,1.30
2019-04-25T20:23:00.328Z,1.40
2019-04-25T20:25:29.284Z,1.30
2019-04-25T20:27:58.319Z,1.40
2019-04-25T20:30:27.343Z,1.43
2019-04-25T20:32:59.038Z,1.07
2019-04-25T20:35:27.993Z,1.10
2019-04-25T20:37:57.000Z,1.20
2019-04-25T20:40:25.978Z,1.27
2019-04-25T20:42:54.976Z,1.20
2019-04-25T20:45:24.728Z,1.00
2019-04-25T20:47:54.702Z,1.23
2019-04-25T20:50:25.326Z,1.07
2019-04-25T20:52:54.943Z,1.07
2019-04-25T20:55:24.084Z,1.30
2019-04-25T20:57:53.275Z,1.00
2019-04-25T21:00:41.774Z,1.13
2019-04-25T21:03:10.773Z,1.03
2019-04-25T21:05:40.272Z,0.93
2019-04-25T21:08:09.244Z,1.10
2019-04-25T21:10:38.338Z,1.00
2019-04-25T21:13:08.974Z,0.90
2019-04-25T21:15:52.143Z,0.80
2019-04-25T21:18:25.402Z,1.10
2019-04-25T21:20:55.003Z,1.13
2019-04-25T21:23:24.003Z,0.93
2019-04-25T21:25:53.062Z,1.03
2019-04-25T21:28:22.072Z,0.90
2019-04-25T21:30:51.399Z,1.17
2019-04-25T21:33:20.785Z,1.00
2019-04-25T21:35:50.842Z,1.03
2019-04-25T21:38:20.228Z,2.23
2019-04-25T21:41:09.641Z,1.00
2019-04-25T21:43:42.991Z,1.40
2019-04-25T21:46:12.291Z,1.20
2019-04-25T21:48:41.517Z,1.00
2019-04-25T21:51:28.285Z,1.70
2019-04-25T21:53:57.307Z,1.40
2019-04-25T21:56:26.709Z,1.57
2019-04-25T21:58:58.104Z,1.20
2019-04-25T22:01:30.193Z,1.40
2019-04-25T22:03:59.146Z,1.80
2019-04-25T22:06:28.696Z,1.50
2019-04-25T22:08:58.682Z,1.47
2019-04-25T22:11:27.922Z,1.83
2019-04-25T22:13:57.391Z,1.77
2019-04-25T22:16:26.797Z,1.90
2019-04-25T22:18:56.455Z,2.00
2019-04-25T22:21:37.438Z,1.90
2019-04-25T22:24:05.966Z,1.30
2019-04-25T22:26:27.406Z,1.57
2019-04-25T22:28:59.452Z,1.47
2019-04-25T22:31:30.137Z,1.50
2019-04-25T22:34:01.636Z,1.87
2019-04-25T22:36:31.023Z,1.47
2019-04-25T22:39:14.865Z,2.40
2019-04-25T22:41:47.177Z,1.63
2019-04-25T22:44:17.941Z,2.10
2019-04-25T22:46:47.664Z,2.17
2019-04-25T22:49:16.764Z,2.47
2019-04-25T22:51:48.513Z,2.27
2019-04-25T22:54:17.840Z,2.03
2019-04-25T22:56:46.798Z,1.30
2019-04-25T22:59:16.034Z,2.60
2019-04-25T23:01:52.628Z,1.53
2019-04-25T23:04:23.259Z,1.60
2019-04-25T23:06:52.379Z,1.43
2019-04-25T23:09:21.396Z,1.37
2019-04-25T23:11:50.617Z,1.30
2019-04-25T23:14:20.012Z,1.20
2019-04-25T23:16:49.010Z,1.27
2019-04-25T23:19:17.972Z,1.27
2019-04-25T23:21:47.216Z,1.60
2019-04-25T23:24:17.922Z,1.40
2019-04-25T23:26:57.411Z,1.20
2019-04-25T23:29:27.710Z,1.20
2019-04-25T23:31:56.764Z,1.10
2019-04-25T23:34:26.021Z,1.47
2019-04-25T23:36:55.058Z,1.60
2019-04-25T23:39:24.305Z,1.70
2019-04-25T23:41:53.329Z,1.40
2019-04-25T23:44:22.427Z,1.60
2019-04-25T23:46:52.465Z,1.50
2019-04-25T23:49:23.053Z,1.70
2019-04-25T23:51:52.302Z,1.77
2019-04-25T23:54:21.274Z,1.60
2019-04-25T23:56:50.283Z,1.60
2019-04-25T23:59:19.266Z,1.93
